createdAt,value
2018-05-16T00:01:06.998Z,99.90
2018-05-16T00:03:35.244Z,99.90
2018-05-16T00:06:03.516Z,99.90
2018-05-16T00:08:32.892Z,99.90
2018-05-16T00:11:01.927Z,99.90
2018-05-16T00:15:59.856Z,99.90
2018-05-16T00:18:28.490Z,99.90
2018-05-16T00:20:57.520Z,99.90
2018-05-16T00:23:25.867Z,99.90
2018-05-16T00:25:55.622Z,99.90
2018-05-16T00:28:23.859Z,99.90
2018-05-16T00:30:52.900Z,99.90
2018-05-16T00:33:21.135Z,99.90
2018-05-16T00:35:50.144Z,99.90
2018-05-16T00:38:19.347Z,99.90
2018-05-16T00:40:49.104Z,99.90
2018-05-16T00:43:18.471Z,99.90
2018-05-16T00:45:46.746Z,99.90
2018-05-16T00:48:14.988Z,99.90
2018-05-16T00:50:55.364Z,99.90
2018-05-16T00:53:23.581Z,99.90
2018-05-16T00:55:51.819Z,99.90
2018-05-16T00:58:21.235Z,99.90
2018-05-16T01:00:49.523Z,99.90
2018-05-16T01:03:17.782Z,99.90
2018-05-16T01:05:46.024Z,99.90
2018-05-16T01:08:14.290Z,99.90
2018-05-16T01:10:42.538Z,99.90
2018-05-16T01:13:10.799Z,99.90
2018-05-16T01:15:39.065Z,99.90
2018-05-16T01:18:08.079Z,99.90
2018-05-16T01:20:37.110Z,99.90
2018-05-16T01:23:05.375Z,99.90
2018-05-16T01:28:03.223Z,99.90
2018-05-16T01:30:32.605Z,99.90
2018-05-16T01:33:00.844Z,99.90
2018-05-16T01:35:29.107Z,99.90
2018-05-16T01:37:57.352Z,99.90
2018-05-16T01:40:27.119Z,99.90
2018-05-16T01:42:55.404Z,99.90
2018-05-16T01:47:53.512Z,99.90
2018-05-16T01:50:21.784Z,99.90
2018-05-16T01:52:50.023Z,99.90
2018-05-16T01:55:18.288Z,99.90
2018-05-16T01:57:46.551Z,99.90
2018-05-16T02:02:44.263Z,99.90
2018-05-16T02:05:12.854Z,99.90
2018-05-16T02:07:41.084Z,99.90
2018-05-16T02:12:39.031Z,99.90
2018-05-16T02:15:08.767Z,99.90
2018-05-16T02:17:37.768Z,99.90
2018-05-16T02:20:07.171Z,99.90
2018-05-16T02:22:35.403Z,99.90
2018-05-16T02:25:05.139Z,99.90
2018-05-16T02:27:34.219Z,99.90
2018-05-16T02:32:31.902Z,99.90
2018-05-16T02:35:01.686Z,99.90
2018-05-16T02:39:59.756Z,99.90
2018-05-16T02:42:28.012Z,99.90
2018-05-16T02:44:56.234Z,99.90
2018-05-16T02:47:24.503Z,99.90
2018-05-16T02:49:53.191Z,99.90
2018-05-16T02:52:22.188Z,99.90
2018-05-16T02:54:50.414Z,99.90
2018-05-16T02:57:18.671Z,99.90
2018-05-16T02:59:46.902Z,99.90
2018-05-16T03:07:15.219Z,99.90
2018-05-16T03:09:43.472Z,99.90
2018-05-16T03:12:11.694Z,99.90
2018-05-16T03:14:40.315Z,99.90
2018-05-16T03:19:39.550Z,99.90
2018-05-16T03:22:07.775Z,99.90
2018-05-16T03:24:36.903Z,99.90
2018-05-16T03:27:05.898Z,99.90
2018-05-16T03:29:34.518Z,99.90
2018-05-16T03:34:32.231Z,99.90
2018-05-16T03:37:00.459Z,99.90
2018-05-16T03:39:29.507Z,99.90
2018-05-16T03:41:58.501Z,99.90
2018-05-16T03:44:27.490Z,99.90
2018-05-16T03:46:55.763Z,99.90
2018-05-16T03:49:24.754Z,99.90
2018-05-16T03:51:53.862Z,99.90
2018-05-16T03:54:22.054Z,99.90
2018-05-16T03:59:31.527Z,99.90
2018-05-16T04:02:11.552Z,99.90
2018-05-16T04:04:39.826Z,99.90
2018-05-16T04:07:09.564Z,99.90
2018-05-16T04:09:37.791Z,99.90
2018-05-16T04:12:06.075Z,99.90
2018-05-16T04:14:35.072Z,99.90
2018-05-16T04:17:04.807Z,99.90
2018-05-16T04:19:33.100Z,99.90
2018-05-16T04:22:02.463Z,99.90
2018-05-16T04:24:31.455Z,99.90
2018-05-16T04:26:59.731Z,99.90
2018-05-16T04:29:28.731Z,99.90
2018-05-16T04:31:57.138Z,99.90
2018-05-16T04:34:25.595Z,99.90
2018-05-16T04:36:53.828Z,99.90
2018-05-16T04:39:22.060Z,99.90
2018-05-16T04:41:51.488Z,99.90
2018-05-16T04:44:19.698Z,99.90
2018-05-16T04:46:47.928Z,99.90
2018-05-16T04:51:45.679Z,99.90
2018-05-16T04:56:44.907Z,99.90
2018-05-16T04:59:13.899Z,99.90
2018-05-16T05:01:42.918Z,99.90
2018-05-16T05:04:11.175Z,99.90
2018-05-16T05:06:40.543Z,99.90
2018-05-16T05:09:08.798Z,99.90
2018-05-16T05:11:37.176Z,99.90
2018-05-16T05:14:05.407Z,99.90
2018-05-16T05:16:34.783Z,99.90
2018-05-16T05:19:03.047Z,99.90
2018-05-16T05:24:01.957Z,99.90
2018-05-16T05:26:30.147Z,99.90
2018-05-16T05:28:58.379Z,99.90
2018-05-16T05:31:27.377Z,99.90
2018-05-16T05:33:55.696Z,99.90
2018-05-16T05:36:23.928Z,99.90
2018-05-16T05:38:53.662Z,99.90
2018-05-16T05:41:22.699Z,99.90
2018-05-16T05:43:50.927Z,99.90
2018-05-16T05:46:19.146Z,99.90
2018-05-16T05:48:48.179Z,99.90
2018-05-16T05:51:16.407Z,99.90
2018-05-16T05:53:45.403Z,99.90
2018-05-16T05:56:13.691Z,99.90
2018-05-16T05:58:43.423Z,99.90
2018-05-16T06:01:11.655Z,99.90
2018-05-16T06:06:09.367Z,99.90
2018-05-16T06:08:37.592Z,99.90
2018-05-16T06:11:05.878Z,99.90
2018-05-16T06:13:34.102Z,99.90
2018-05-16T06:16:03.470Z,99.90
2018-05-16T06:18:31.767Z,99.90
2018-05-16T06:20:59.996Z,99.90
2018-05-16T06:23:28.219Z,99.90
2018-05-16T06:25:56.498Z,99.90
2018-05-16T06:28:26.235Z,99.90
2018-05-16T06:30:54.472Z,99.90
2018-05-16T06:33:24.261Z,99.90
2018-05-16T06:35:53.012Z,99.90
2018-05-16T06:38:21.235Z,99.90
2018-05-16T06:40:51.027Z,99.90
2018-05-16T06:43:19.251Z,99.90
2018-05-16T06:45:47.516Z,99.90
2018-05-16T06:48:15.759Z,99.90
2018-05-16T06:50:45.122Z,99.90
2018-05-16T06:53:13.350Z,99.90
2018-05-16T06:55:41.614Z,99.90
2018-05-16T06:58:09.848Z,99.90
2018-05-16T07:03:07.567Z,99.90
2018-05-16T07:05:35.795Z,99.90
2018-05-16T07:08:04.023Z,99.90
2018-05-16T07:10:32.272Z,99.90
2018-05-16T07:13:02.039Z,99.90
2018-05-16T07:15:30.265Z,99.90
2018-05-16T07:17:59.288Z,99.90
2018-05-16T07:20:28.312Z,99.90
2018-05-16T07:22:56.643Z,99.90
2018-05-16T07:25:24.838Z,99.90
2018-05-16T07:27:53.103Z,99.90
2018-05-16T07:30:22.834Z,99.90
2018-05-16T07:35:21.126Z,99.90
2018-05-16T07:37:49.363Z,99.90
2018-05-16T07:40:17.627Z,99.90
2018-05-16T07:42:45.859Z,99.90
2018-05-16T07:45:14.102Z,99.90
2018-05-16T07:47:42.387Z,99.90
2018-05-16T07:50:11.763Z,99.90
2018-05-16T07:55:11.052Z,99.90
2018-05-16T07:57:40.043Z,99.90
2018-05-16T08:00:08.279Z,99.90
2018-05-16T08:02:36.543Z,99.90
2018-05-16T08:07:34.635Z,99.80
2018-05-16T08:10:02.897Z,98.60
2018-05-16T08:12:32.635Z,98.90
2018-05-16T08:15:00.870Z,97.70
2018-05-16T08:17:29.142Z,98.50
2018-05-16T08:19:57.379Z,98.70
2018-05-16T08:22:26.823Z,98.30
2018-05-16T08:24:55.479Z,98.30
2018-05-16T08:27:24.695Z,98.50
2018-05-16T08:29:54.432Z,99.00
2018-05-16T08:32:23.830Z,98.70
2018-05-16T08:37:22.311Z,98.80
2018-05-16T08:39:50.575Z,99.10
2018-05-16T08:42:19.948Z,99.00
2018-05-16T08:44:48.602Z,99.50
2018-05-16T08:47:18.382Z,99.60
2018-05-16T08:49:46.686Z,99.70
2018-05-16T08:52:14.923Z,99.90
2018-05-16T08:54:43.159Z,98.80
2018-05-16T08:57:12.952Z,99.70
2018-05-16T08:59:41.183Z,99.20
2018-05-16T09:02:10.928Z,99.70
2018-05-16T09:04:43.751Z,99.90
2018-05-16T09:07:11.982Z,99.30
2018-05-16T09:09:41.367Z,99.50
2018-05-16T09:12:10.388Z,99.30
2018-05-16T09:14:39.448Z,99.50
2018-05-16T09:17:07.702Z,99.90
2018-05-16T09:22:05.879Z,98.70
2018-05-16T09:24:34.111Z,98.80
2018-05-16T09:27:02.343Z,96.60
2018-05-16T09:29:30.607Z,96.10
2018-05-16T09:31:58.835Z,96.00
2018-05-16T09:34:27.059Z,95.90
2018-05-16T09:39:24.787Z,95.80
2018-05-16T09:41:53.778Z,95.50
2018-05-16T09:44:23.551Z,96.40
2018-05-16T09:46:51.787Z,95.50
2018-05-16T09:49:20.031Z,95.80
2018-05-16T09:51:49.067Z,96.50
2018-05-16T09:54:17.304Z,96.50
2018-05-16T09:59:16.556Z,94.50
2018-05-16T10:04:14.251Z,95.30
2018-05-16T10:06:44.027Z,94.80
2018-05-16T10:09:12.265Z,94.50
2018-05-16T10:11:40.495Z,94.90
2018-05-16T10:14:10.267Z,94.50
2018-05-16T10:16:38.491Z,92.40
2018-05-16T10:19:06.714Z,92.90
2018-05-16T10:21:34.978Z,91.30
2018-05-16T10:24:03.207Z,92.10
2018-05-16T10:26:32.974Z,92.00
2018-05-16T10:29:02.753Z,92.30
2018-05-16T10:31:30.979Z,92.10
2018-05-16T10:36:29.100Z,92.60
2018-05-16T10:38:57.327Z,92.80
2018-05-16T10:41:25.642Z,91.50
2018-05-16T10:43:54.587Z,91.60
2018-05-16T10:46:23.583Z,92.00
2018-05-16T10:48:51.862Z,92.20
2018-05-16T10:51:20.088Z,91.00
2018-05-16T10:53:48.311Z,90.70
2018-05-16T10:56:18.082Z,90.90
2018-05-16T10:58:46.315Z,91.30
2018-05-16T11:01:14.539Z,90.60
2018-05-16T11:03:42.803Z,90.80
2018-05-16T11:06:11.026Z,91.00
2018-05-16T11:08:39.255Z,91.60
2018-05-16T11:11:09.033Z,91.90
2018-05-16T11:13:37.263Z,92.10
2018-05-16T11:16:05.883Z,92.60
2018-05-16T11:18:34.139Z,92.40
2018-05-16T11:23:31.886Z,93.00
2018-05-16T11:26:00.104Z,93.20
2018-05-16T11:28:28.339Z,93.40
2018-05-16T11:30:57.735Z,94.40
2018-05-16T11:33:25.972Z,94.10
2018-05-16T11:35:55.706Z,94.70
2018-05-16T11:38:23.967Z,94.00
2018-05-16T11:40:52.194Z,94.80
2018-05-16T11:43:21.242Z,95.60
2018-05-16T11:48:18.931Z,95.40
2018-05-16T11:50:47.195Z,95.80
2018-05-16T11:53:16.563Z,95.30
2018-05-16T11:55:44.787Z,94.80
2018-05-16T11:58:13.844Z,94.70
2018-05-16T12:00:42.835Z,94.80
2018-05-16T12:05:41.331Z,94.60
2018-05-16T12:08:09.967Z,93.90
2018-05-16T12:10:40.211Z,93.40
2018-05-16T12:13:08.475Z,92.60
2018-05-16T12:15:37.471Z,92.40
2018-05-16T12:18:05.699Z,91.40
2018-05-16T12:23:03.811Z,90.20
2018-05-16T12:25:32.042Z,90.80
2018-05-16T12:28:00.315Z,90.70
2018-05-16T12:30:28.935Z,92.30
2018-05-16T12:32:57.163Z,91.80
2018-05-16T12:35:25.446Z,92.30
2018-05-16T12:37:53.684Z,90.30
2018-05-16T12:40:23.415Z,91.10
2018-05-16T12:43:03.648Z,91.60
2018-05-16T12:45:31.875Z,91.50
2018-05-16T12:48:00.103Z,91.20
2018-05-16T12:50:29.136Z,91.70
2018-05-16T12:52:57.371Z,92.40
2018-05-16T12:55:25.610Z,92.50
2018-05-16T12:57:53.884Z,93.60
2018-05-16T13:00:22.112Z,93.20
2018-05-16T13:02:50.343Z,93.70
2018-05-16T13:05:18.603Z,93.60
2018-05-16T13:07:46.835Z,94.30
2018-05-16T13:10:16.199Z,94.50
2018-05-16T13:12:44.867Z,94.50
2018-05-16T13:15:13.099Z,95.00
2018-05-16T13:20:10.919Z,94.00
2018-05-16T13:22:39.156Z,93.20
2018-05-16T13:25:07.784Z,92.40
2018-05-16T13:27:36.869Z,92.70
2018-05-16T13:30:05.490Z,93.60
2018-05-16T13:32:35.219Z,92.70
2018-05-16T13:35:04.252Z,94.10
2018-05-16T13:37:33.615Z,95.00
2018-05-16T13:40:03.391Z,95.50
2018-05-16T13:42:31.655Z,94.70
2018-05-16T13:44:59.883Z,94.40
2018-05-16T13:47:28.117Z,94.40
2018-05-16T13:52:25.919Z,94.40
2018-05-16T13:54:54.119Z,95.70
2018-05-16T13:57:22.391Z,95.10
2018-05-16T13:59:50.619Z,95.80
2018-05-16T14:02:18.847Z,96.10
2018-05-16T14:04:48.619Z,96.80
2018-05-16T14:07:16.851Z,96.80
2018-05-16T14:09:45.115Z,95.80
2018-05-16T14:12:13.347Z,96.30
2018-05-16T14:14:41.578Z,96.10
2018-05-16T14:17:10.253Z,96.50
2018-05-16T14:19:39.243Z,97.40
2018-05-16T14:22:07.479Z,97.30
2018-05-16T14:24:35.743Z,98.10
2018-05-16T14:27:03.982Z,98.20
2018-05-16T14:29:32.269Z,98.40
2018-05-16T14:32:00.513Z,98.70
2018-05-16T14:34:28.760Z,99.00
2018-05-16T14:36:57.031Z,98.60
2018-05-16T14:41:54.767Z,99.10
2018-05-16T14:44:23.031Z,99.90
2018-05-16T14:46:51.275Z,99.90
2018-05-16T14:49:19.551Z,99.90
2018-05-16T14:51:48.923Z,99.90
2018-05-16T14:54:19.979Z,99.90
2018-05-16T14:56:48.990Z,99.90
2018-05-16T14:59:17.982Z,99.90
2018-05-16T15:01:46.281Z,99.90
2018-05-16T15:04:15.264Z,99.90
2018-05-16T15:06:43.511Z,99.90
2018-05-16T15:11:41.650Z,99.90
2018-05-16T15:14:09.892Z,99.90
2018-05-16T15:16:38.167Z,99.90
2018-05-16T15:19:06.399Z,99.90
2018-05-16T15:21:34.631Z,99.90
2018-05-16T15:24:02.936Z,99.90
2018-05-16T15:29:00.631Z,99.90
2018-05-16T15:31:28.932Z,99.90
2018-05-16T15:33:57.171Z,99.90
2018-05-16T15:36:25.415Z,99.90
2018-05-16T15:38:54.865Z,99.90
2018-05-16T15:41:23.871Z,99.90
2018-05-16T15:43:52.875Z,99.90
2018-05-16T15:46:21.159Z,99.90
2018-05-16T15:48:49.393Z,99.90
2018-05-16T15:53:48.263Z,99.90
2018-05-16T15:56:16.504Z,99.90
2018-05-16T15:58:44.750Z,99.90
2018-05-16T16:01:13.791Z,99.90
2018-05-16T16:03:42.798Z,99.90
2018-05-16T16:06:12.167Z,99.90
2018-05-16T16:08:40.449Z,99.90
2018-05-16T16:11:10.187Z,99.90
2018-05-16T16:13:38.423Z,99.90
2018-05-16T16:16:07.472Z,99.90
2018-05-16T16:21:05.169Z,99.90
2018-05-16T16:23:33.451Z,99.90
2018-05-16T16:26:01.695Z,99.90
2018-05-16T16:28:31.065Z,99.90
2018-05-16T16:30:59.339Z,99.90
2018-05-16T16:33:27.581Z,99.90
2018-05-16T16:35:55.811Z,99.90
2018-05-16T16:38:25.584Z,99.90
2018-05-16T16:40:53.823Z,99.90
2018-05-16T16:43:22.127Z,99.90
2018-05-16T16:45:50.747Z,99.90
2018-05-16T16:48:18.980Z,99.90
2018-05-16T16:50:47.990Z,99.90
2018-05-16T16:53:17.055Z,99.90
2018-05-16T16:55:45.303Z,99.90
2018-05-16T16:58:14.310Z,99.90
2018-05-16T17:03:12.444Z,99.90
2018-05-16T17:05:41.451Z,99.90
2018-05-16T17:08:09.735Z,99.90
2018-05-16T17:10:37.979Z,99.90
2018-05-16T17:13:07.360Z,99.90
2018-05-16T17:15:35.642Z,99.90
2018-05-16T17:18:03.883Z,99.90
2018-05-16T17:20:32.123Z,99.90
2018-05-16T17:23:00.419Z,99.90
2018-05-16T17:25:29.427Z,99.90
2018-05-16T17:27:57.667Z,99.90
2018-05-16T17:30:26.793Z,99.90
2018-05-16T17:32:54.971Z,99.90
2018-05-16T17:35:24.715Z,99.90
2018-05-16T17:37:54.132Z,99.90
2018-05-16T17:40:22.371Z,99.90
2018-05-16T17:42:51.375Z,99.90
2018-05-16T17:45:21.174Z,99.90
2018-05-16T17:50:19.641Z,99.90
2018-05-16T17:52:47.915Z,99.90
2018-05-16T17:55:16.924Z,99.90
2018-05-16T17:57:45.165Z,99.90
2018-05-16T18:00:13.439Z,99.90
2018-05-16T18:02:41.681Z,99.90
2018-05-16T18:05:09.914Z,99.90
2018-05-16T18:07:38.191Z,99.90
2018-05-16T18:10:06.418Z,99.90
2018-05-16T18:15:18.775Z,99.90
2018-05-16T18:17:47.007Z,99.90
2018-05-16T18:20:16.742Z,99.90
2018-05-16T18:22:45.007Z,99.90
2018-05-16T18:25:14.755Z,99.90
2018-05-16T18:27:42.992Z,99.90
2018-05-16T18:30:11.284Z,99.90
2018-05-16T18:32:39.511Z,99.90
2018-05-16T18:35:07.747Z,99.90
2018-05-16T18:37:36.803Z,99.90
2018-05-16T18:40:05.798Z,99.90
2018-05-16T18:42:34.087Z,99.90
2018-05-16T18:47:33.295Z,99.90
2018-05-16T18:50:03.350Z,99.90
2018-05-16T18:52:31.618Z,99.90
2018-05-16T18:54:59.851Z,99.90
2018-05-16T18:57:28.895Z,99.90
2018-05-16T18:59:59.827Z,99.90
2018-05-16T19:02:29.172Z,99.90
2018-05-16T19:04:58.187Z,99.90
2018-05-16T19:07:27.178Z,99.90
2018-05-16T19:09:56.217Z,99.90
2018-05-16T19:12:24.467Z,99.90
2018-05-16T19:14:52.698Z,99.90
2018-05-16T19:17:21.375Z,99.90
2018-05-16T19:19:49.611Z,99.90
2018-05-16T19:22:18.977Z,99.90
2018-05-16T19:24:47.675Z,99.90
2018-05-16T19:27:15.912Z,99.90
2018-05-16T19:29:44.147Z,99.90
2018-05-16T19:32:13.175Z,99.90
2018-05-16T19:34:42.179Z,99.90
2018-05-16T19:37:10.404Z,99.90
2018-05-16T19:39:38.665Z,99.90
2018-05-16T19:42:07.663Z,99.90
2018-05-16T19:47:06.166Z,99.90
2018-05-16T19:49:34.398Z,99.90
2018-05-16T19:52:02.660Z,99.90
2018-05-16T19:57:00.407Z,99.90
2018-05-16T19:59:28.631Z,99.90
2018-05-16T20:01:56.907Z,99.90
2018-05-16T20:04:26.646Z,99.90
2018-05-16T20:06:54.886Z,99.90
2018-05-16T20:09:23.894Z,99.90
2018-05-16T20:11:53.263Z,99.90
2018-05-16T20:14:21.543Z,99.90
2018-05-16T20:16:51.312Z,99.90
2018-05-16T20:19:19.543Z,99.90
2018-05-16T20:21:47.816Z,99.90
2018-05-16T20:24:16.047Z,99.90
2018-05-16T20:26:44.288Z,99.90
2018-05-16T20:29:12.547Z,99.90
2018-05-16T20:31:41.920Z,99.90
2018-05-16T20:34:10.151Z,99.90
2018-05-16T20:36:38.823Z,99.90
2018-05-16T20:39:07.051Z,99.90
2018-05-16T20:41:35.290Z,99.90
2018-05-16T20:44:03.559Z,99.90
2018-05-16T20:46:32.559Z,99.90
2018-05-16T20:49:01.559Z,99.90
2018-05-16T20:51:29.844Z,99.90
2018-05-16T20:56:28.737Z,99.90
2018-05-16T20:58:57.203Z,99.90
2018-05-16T21:01:25.324Z,99.90
2018-05-16T21:03:53.590Z,99.90
2018-05-16T21:06:22.620Z,99.90
2018-05-16T21:08:51.619Z,99.90
2018-05-16T21:11:20.618Z,99.90
2018-05-16T21:13:53.206Z,99.90
2018-05-16T21:16:22.950Z,99.90
2018-05-16T21:18:51.182Z,99.90
2018-05-16T21:21:20.211Z,99.90
2018-05-16T21:23:49.215Z,99.90
2018-05-16T21:26:17.483Z,99.90
2018-05-16T21:28:46.518Z,99.90
2018-05-16T21:31:14.744Z,99.90
2018-05-16T21:33:43.015Z,99.90
2018-05-16T21:36:11.580Z,99.90
2018-05-16T21:38:39.810Z,99.90
2018-05-16T21:43:37.539Z,99.90
2018-05-16T21:46:05.771Z,99.90
2018-05-16T21:48:34.007Z,99.90
2018-05-16T21:51:02.267Z,99.90
2018-05-16T21:53:31.640Z,99.90
2018-05-16T21:55:59.910Z,99.90
2018-05-16T21:58:29.460Z,99.90
2018-05-16T22:00:58.095Z,99.90
2018-05-16T22:03:26.379Z,99.90
2018-05-16T22:05:54.618Z,99.90
2018-05-16T22:08:24.367Z,99.90
2018-05-16T22:10:52.643Z,99.90
2018-05-16T22:13:20.882Z,99.90
2018-05-16T22:15:50.618Z,99.90
2018-05-16T22:18:18.896Z,99.90
2018-05-16T22:20:47.131Z,99.90
2018-05-16T22:23:15.763Z,99.90
2018-05-16T22:25:44.044Z,99.90
2018-05-16T22:28:13.418Z,99.90
2018-05-16T22:33:23.051Z,99.90
2018-05-16T22:35:57.298Z,99.90
2018-05-16T22:38:31.335Z,99.90
2018-05-16T22:41:05.822Z,99.90
2018-05-16T22:43:37.830Z,99.90
2018-05-16T22:46:06.871Z,99.90
2018-05-16T22:48:35.099Z,99.90
2018-05-16T22:51:04.099Z,99.90
2018-05-16T22:56:02.623Z,99.90
2018-05-16T22:58:30.860Z,99.90
2018-05-16T23:01:00.635Z,99.90
2018-05-16T23:03:28.874Z,99.90
2018-05-16T23:05:57.519Z,99.90
2018-05-16T23:08:25.798Z,99.90
2018-05-16T23:10:54.026Z,99.90
2018-05-16T23:13:23.396Z,99.90
2018-05-16T23:18:22.319Z,99.90
2018-05-16T23:20:50.550Z,99.90
2018-05-16T23:25:49.815Z,99.90
2018-05-16T23:28:18.815Z,99.90
2018-05-16T23:30:47.156Z,99.90
2018-05-16T23:33:16.451Z,99.90
2018-05-16T23:38:14.578Z,99.90
2018-05-16T23:40:42.810Z,99.90
2018-05-16T23:43:11.044Z,99.90
2018-05-16T23:45:39.335Z,99.90
2018-05-16T23:48:07.564Z,99.90
2018-05-16T23:50:35.803Z,99.90
2018-05-16T23:53:05.213Z,99.90
2018-05-16T23:55:33.495Z,99.90
2018-05-16T23:58:01.703Z,99.90
